Terminal Aerodrome Forecast
Issued by NWS

Home | Current Version | Previous Version | Text Only | Print | Product List | Glossary On
Versions: 1 2 3 4 5 6 7 8 9 10 11 12 13 14 15 16 17 18 19 20 21 22
575
FTUS43 KPAH 251741
TAFCGI
TAF
KCGI 251741Z 2518/2618 17011G19KT P6SM -SHRA FEW015 BKN020
     FM251900 17013G21KT P6SM -SHRA VCTS SCT045 BKN070CB
     FM252200 18010KT P6SM BKN090
     FM260600 22006KT P6SM SCT030 BKN080=

USA.gov is the U.S. government's official web portal to all federal, state and local government web resources and services.